Impacts METAR Board
IDs:

KDTW - Detroit Metro/Wayne, MI, US

Updated at: 2200 UTC 19 Jan 2019
Potential Impact None Slight Moderate High
Time 19/10Z 19/11Z 19/12Z 19/13Z 19/14Z 19/15Z 19/16Z 19/17Z 19/18Z 19/19Z 19/20Z 19/21Z 19/22Z
Temp23 22 22 22 22 21 21 21 20 20 20 20 20
Dewpt19 18 18 18 17 17 16 16 15 14 14 14 14
Altim30.16 30.15 30.13 30.09 30.09 30.08 30.08 30.06 30.04 29.98 29.95 29.93 29.92
VIS0.75 0.75 3 4 4 0.5 1.5 0.5 1 1 1.5 1.25 1.25
CIG18 10 10 10 18 11 18 13 14 16 25 18 24
CoverOVCOVCOVCOVCOVCOVCOVCOVCOVCOVCOVCOVCOVC
FltCatLIFRLIFRMVFRMVFRMVFRLIFRIFRLIFRIFRIFRIFRIFRIFR
WX-SN BR-SN BR-SN BR-SN BR-SNSN FZFG-SNSN-SN-SN-SN-SN BLSN-SN BLSN
WDir30304050503030304040403030
WSpd8 7 10 10 15 12 10 12 13 16 12 18 14
WGst-- -- -- -- 22 -- -- -- 21 -- -- 26 25
Raw hourly METARs
KDTW 190953Z 03008KT 3/4SM R03R/P6000FT -SN BR OVC018 M05/M07 A3016 RMK AO2 TWR VIS 1 SLP223 P0004 T10501072
KDTW 191053Z 03007KT 3/4SM R03R/5000VP6000FT -SN BR OVC010 M06/M08 A3015 RMK AO2 TWR VIS 1 SLP220 P0004 T10561078
KDTW 191203Z 04010KT 3SM -SN BR BKN010 OVC020 M06/M08 A3013 RMK AO2 P0000 T10561078 $
KDTW 191253Z 05010KT 4SM -SN BR BKN010 OVC015 M06/M08 A3009 RMK AO2 SLP198 P0000 T10561078 $
KDTW 191353Z 05015G22KT 4SM -SN SCT011 OVC018 M06/M08 A3009 RMK AO2 SLP197 P0000 T10561083 $
KDTW 191453Z 03012KT 1/2SM R03R/3500V4000FT SN FZFG OVC011 M06/M08 A3008 RMK AO2 TWR VIS 3/4 SLP194 P0002 60002 T10611083 56022 $
KDTW 191553Z 03010KT 1 1/2SM R03R/6000VP6000FT -SN FEW012 OVC018 M06/M09 A3008 RMK AO2 SLP196 P0003 T10611089 $
KDTW 191653Z 03012KT 1/2SM R03R/4000V4500FT SN OVC013 M06/M09 A3006 RMK AO2 TWR VIS 1 1/2 SLP189 P0002 T10611089 $
KDTW 191753Z 04013G21KT 1SM R03R/4500V6000FT -SN OVC014 M07/M09 A3004 RMK AO2 SLP182 P0006 60013 T10671094 11056 21067 58012 $
KDTW 191853Z 04016KT 1SM R03R/5000VP6000FT -SN OVC016 M07/M10 A2998 RMK AO2 PRESFR SLP163 P0002 T10671100 $
KDTW 191953Z 04012KT 1 1/2SM -SN BKN025 OVC035 M07/M10 A2995 RMK AO2 TWR VIS 2 SLP152 P0000 T10671100 $
KDTW 192053Z 03018G26KT 1 1/4SM R03R/4500V6000FT -SN BLSN OVC018 M07/M10 A2993 RMK AO2 PK WND 03026/2053 TWR VIS 2 SLP146 P0002 60004 T10671100 56036 $
KDTW 192153Z 03014G25KT 1 1/4SM -SN BLSN FEW015 OVC024 M07/M10 A2992 RMK AO2 PK WND 03026/2057 TWR VIS 2 SLP143 P0001 T10671100 $



Page loaded:  22:23 UTC  |   02:23 PM Pacific  |   03:23 PM Mountain  |   04:23 PM Central  |   05:23 PM Eastern

 

ADVISORIES

FORECASTS

FORECASTS

OBSERVATIONS

USER TOOLS

ABOUT US